Cadiz, KY

7:09 PM CDT on August 20, 2014 (GMT -0500)
Kyle-Oakley | Change Station
CLOSE
Current Station
Airport
Location: Murray,
Elevation: 577 ft
Nearby Weather Stations
Active Advisory: Heat Advisory Active Notice: Public Information Statement

Elev 577 ft 36.66 °N, 88.37 °W | Updated 14 minutes ago

Clear
Clear
90 °F
Feels Like 98 °F
N
7
Wind Variable Wind from WSW

Today
High -- | Low -- °F
--% Chance of Precip.
Yesterday
High -- | Low -- °F
Precip. -- in
6:12 AM 7:36 PM
Waning Crescent, 18% visible
Pressure 29.98 in
Visibility 10.0 miles
Clouds Clear
Heat Index 98 °F
Dew Point 73 °F
Humidity 59%
Rainfall 0.00 in
Snow Depth Not available.
UV 0 out of 12
Pollen 9.30 out of 12
Air Quality Not available.
Flu Activity Not available.
METAR KCEY 202355Z AUTO 24006KT 10SM CLR 32/23 A2998 RMK AO1

More Conditions Fewer Conditions

Pressure 29.98 in
Visibility 10.0 miles
Clouds Clear
Heat Index 98 °F
Dew Point 73 °F
Humidity 59%
Rainfall 0.00 in
Snow Depth Not available.
UV 0 out of 12
Pollen 9.30 out of 12
Air Quality Not available.
Flu Activity Not available.
METAR KCEY 202355Z AUTO 24006KT 10SM CLR 32/23 A2998 RMK AO1

More Conditions Fewer Conditions

10-Day Weather Forecast

Almanac

Astronomy

Aug. 20, 2014 Rise Set
Actual Time 6:12 AM CDT 7:36 PM CDT
Civil Twilight 5:45 AM CDT 8:03 PM CDT
Nautical Twilight 5:12 AM CDT 8:35 PM CDT
Astronomical Twilight 4:38 AM CDT 9:09 PM CDT
Moon 1:55 AM CDT (8/20) 4:18 PM CDT (8/20)
Length of Visible Light 14h 17m
Length of Day
13h 23m
Tomorrow will be 2m 7s shorter.
Waning Crescent, 18% of the Moon is Illuminated
Today
Waning Crescent
Aug 25
New
Sep 2
First Quarter
Sep 8
Full
Sep 15
Last Quarter

Today's Extremes

State Highs State Lows

Community

WunderPhotos

Upload Photos

1,745,807 photos uploaded!

WunderBlogs® & News

Nearby

Snow Depth

Station Depth Elevation
No new snow has been reported.

Earthquake Activity

City Distance Mag. Time & Date
No recent earthquake activity has been reported nearby.
Minimum magnitude displayed is 2.5.

Coastal Water Temperatures

Place Temperature
No Stations Reporting

Nearby Weather Stations